Time;durP1;ratioP1;P1;durP2;ratioP2;P2;SDS_P1;SDS_P2;PMS_P1;PMS_P2;Temp;Humidity;BMP_temperature;BMP_pressure;BME280_temperature;BME280_humidity;BME280_pressure;Samples;Min_cycle;Max_cycle;Signal;HPM_P1;HPM_P2
2022/09/20 00:00:18;;;;;;;15.13;3.10;;;9.00;99.90;;;;;;5052577;28;20178;-45
2022/09/20 00:02:43;;;;;;;16.87;4.20;;;9.00;99.90;;;;;;5052540;28;20198;-46
2022/09/20 00:05:09;;;;;;;16.23;3.80;;;9.00;99.90;;;;;;5052202;28;20240;-45
2022/09/20 00:07:34;;;;;;;18.83;3.37;;;9.00;99.90;;;;;;5052308;28;20182;-47
2022/09/20 00:10:00;;;;;;;12.03;3.47;;;9.00;99.90;;;;;;5052154;28;20198;-45
2022/09/20 00:12:25;;;;;;;18.97;3.30;;;9.00;99.90;;;;;;5050917;28;20247;-45
2022/09/20 00:14:51;;;;;;;12.23;3.80;;;9.00;99.90;;;;;;5052859;28;20186;-46
2022/09/20 00:17:17;;;;;;;21.70;4.10;;;9.00;99.90;;;;;;5052332;28;20190;-46
2022/09/20 00:19:42;;;;;;;17.87;4.23;;;9.00;1.00;;;;;;5052334;28;20241;-46
2022/09/20 00:22:08;;;;;;;17.27;4.57;;;9.00;1.00;;;;;;5052375;28;20265;-46
2022/09/20 00:24:35;;;;;;;19.37;3.80;;;9.00;1.00;;;;;;5051859;28;20257;-45
2022/09/20 00:27:02;;;;;;;14.80;3.50;;;9.00;1.00;;;;;;5052259;28;20167;-45
2022/09/20 00:29:27;;;;;;;13.20;3.83;;;8.90;1.00;;;;;;5051916;28;20471;-46
2022/09/20 00:31:53;;;;;;;18.37;3.77;;;8.90;1.00;;;;;;5052109;28;20408;-46
2022/09/20 00:37:02;;;;;;;13.10;3.50;;;8.90;1.00;;;;;;5052057;28;20262;-46
2022/09/20 00:39:28;;;;;;;13.60;3.70;;;8.90;1.00;;;;;;5051846;28;20930;-45
2022/09/20 00:41:54;;;;;;;17.20;4.27;;;8.90;1.00;;;;;;5050824;28;20218;-45
2022/09/20 00:44:43;;;;;;;16.80;4.00;;;8.90;1.00;;;;;;5051263;28;20181;-45
2022/09/20 00:47:25;;;;;;;16.43;3.40;;;8.90;1.00;;;;;;5051838;28;20178;-46
2022/09/20 00:49:57;;;;;;;20.47;4.10;;;8.90;1.00;;;;;;5043938;28;20487;-46
2022/09/20 00:52:23;;;;;;;17.03;3.80;;;8.80;1.00;;;;;;5051390;28;20413;-45
2022/09/20 00:54:49;;;;;;;9.63;3.67;;;8.80;1.00;;;;;;5052032;28;20409;-45
2022/09/20 00:57:14;;;;;;;14.97;3.87;;;8.80;1.00;;;;;;5051354;28;20235;-46
2022/09/20 00:59:44;;;;;;;18.47;3.90;;;8.80;1.00;;;;;;5051739;28;20193;-46
2022/09/20 01:02:20;;;;;;;14.93;3.80;;;8.80;1.00;;;;;;5051669;28;20193;-45
2022/09/20 01:04:47;;;;;;;11.33;3.07;;;8.90;1.00;;;;;;5051246;28;20410;-46
2022/09/20 01:07:16;;;;;;;10.00;3.87;;;8.80;1.00;;;;;;5050065;28;20431;-45
2022/09/20 01:09:41;;;;;;;17.27;4.00;;;8.90;1.00;;;;;;5051497;28;20980;-45
2022/09/20 01:12:13;;;;;;;31.10;4.30;;;8.80;1.00;;;;;;5051091;28;20409;-46
2022/09/20 01:14:42;;;;;;;9.73;3.50;;;8.80;1.00;;;;;;5050603;28;20198;-45
2022/09/20 01:17:08;;;;;;;12.93;3.97;;;8.80;1.00;;;;;;5051603;28;20471;-46
2022/09/20 01:19:52;;;;;;;15.93;4.00;;;8.70;1.00;;;;;;5051097;28;20775;-45
2022/09/20 01:23:02;;;;;;;13.33;4.63;;;8.70;1.00;;;;;;5051472;28;20409;-46
2022/09/20 01:26:05;;;;;;;11.50;3.67;;;8.70;1.00;;;;;;5045182;28;20486;-46
2022/09/20 01:28:31;;;;;;;23.53;4.87;;;8.70;1.00;;;;;;5050828;28;20493;-46
2022/09/20 01:31:09;;;;;;;17.33;5.80;;;8.70;1.00;;;;;;5051600;28;20866;-46
2022/09/20 01:33:47;;;;;;;24.43;5.60;;;8.60;1.00;;;;;;5051333;28;20412;-46
2022/09/20 01:36:36;;;;;;;12.17;5.20;;;8.60;1.00;;;;;;5050868;28;20420;-46
2022/09/20 01:39:33;;;;;;;18.90;3.90;;;8.60;1.00;;;;;;5050971;28;20930;-46
2022/09/20 01:42:04;;;;;;;20.90;4.97;;;8.60;1.00;;;;;;5051561;28;20413;-45
2022/09/20 01:44:59;;;;;;;14.00;4.63;;;8.50;1.00;;;;;;5051003;28;20409;-46
2022/09/20 01:47:25;;;;;;;12.60;4.43;;;8.50;1.00;;;;;;5050984;28;20895;-56
2022/09/20 01:50:02;;;;;;;17.77;5.20;;;8.50;1.00;;;;;;5050427;28;20504;-46
2022/09/20 01:52:46;;;;;;;12.10;4.33;;;8.50;1.00;;;;;;5050466;28;20233;-46
2022/09/20 01:55:45;;;;;;;25.03;4.97;;;8.50;1.00;;;;;;5050530;28;20777;-46
2022/09/20 01:58:32;;;;;;;14.70;5.30;;;8.40;1.00;;;;;;5050480;28;20469;-46
2022/09/20 02:01:35;;;;;;;15.63;4.30;;;8.40;1.00;;;;;;5050818;28;20771;-45
2022/09/20 02:04:19;;;;;;;14.90;4.47;;;8.40;1.00;;;;;;5050390;28;20523;-46
2022/09/20 02:07:00;;;;;;;16.80;4.50;;;8.40;1.00;;;;;;5050420;28;20451;-46
2022/09/20 02:09:56;;;;;;;12.63;4.87;;;8.40;1.00;;;;;;5050049;28;20534;-46
2022/09/20 02:12:39;;;;;;;17.90;4.30;;;8.40;1.00;;;;;;5050172;28;20423;-45
2022/09/20 02:15:35;;;;;;;20.00;5.10;;;8.40;1.00;;;;;;5050271;28;20937;-45
2022/09/20 02:18:09;;;;;;;10.40;4.97;;;8.40;1.00;;;;;;5050242;28;20399;-46
2022/09/20 02:21:04;;;;;;;11.50;4.60;;;8.40;1.00;;;;;;5050034;28;20412;-46
2022/09/20 02:23:55;;;;;;;15.20;4.43;;;8.40;1.00;;;;;;5050314;28;20969;-46
2022/09/20 02:26:38;;;;;;;12.43;4.60;;;8.40;1.00;;;;;;5050139;28;21039;-46
2022/09/20 02:29:41;;;;;;;18.53;6.90;;;8.30;1.00;;;;;;5049772;28;20440;-49
2022/09/20 02:32:18;;;;;;;13.73;4.83;;;8.30;1.00;;;;;;5050149;28;20466;-46
2022/09/20 02:35:10;;;;;;;19.33;5.07;;;8.30;1.00;;;;;;5049784;28;20887;-47
2022/09/20 02:37:56;;;;;;;15.87;4.77;;;8.30;1.00;;;;;;5043482;28;20436;-47
2022/09/20 02:40:38;;;;;;;16.73;4.70;;;8.30;1.00;;;;;;5030212;28;20544;-46
2022/09/20 02:43:21;;;;;;;18.70;5.00;;;8.20;1.00;;;;;;5030298;28;20410;-45
2022/09/20 02:45:54;;;;;;;12.83;4.30;;;8.20;1.00;;;;;;5030237;28;20457;-46
2022/09/20 02:48:25;;;;;;;16.10;4.70;;;8.10;1.00;;;;;;5030284;28;20402;-46
2022/09/20 02:51:17;;;;;;;9.07;4.10;;;8.10;1.00;;;;;;5030271;28;20496;-46
2022/09/20 02:54:02;;;;;;;12.30;4.00;;;8.20;1.00;;;;;;5030281;28;20416;-46
2022/09/20 02:56:54;;;;;;;17.47;5.40;;;8.10;1.00;;;;;;5030252;28;20757;-46
2022/09/20 02:59:32;;;;;;;17.47;4.53;;;8.10;1.00;;;;;;5029944;28;20409;-46
2022/09/20 03:02:34;;;;;;;9.80;4.60;;;8.10;1.00;;;;;;5030063;28;20441;-46
2022/09/20 03:05:25;;;;;;;12.30;4.10;;;8.10;1.00;;;;;;5030005;28;20413;-46
2022/09/20 03:08:03;;;;;;;10.40;4.43;;;8.10;1.00;;;;;;5033495;28;20424;-46
2022/09/20 03:11:00;;;;;;;13.37;3.60;;;8.10;1.00;;;;;;5033807;28;20860;-46
2022/09/20 03:13:53;;;;;;;11.83;4.10;;;8.10;1.00;;;;;;5033560;28;20410;-46
2022/09/20 03:16:26;;;;;;;13.57;4.17;;;8.00;1.00;;;;;;5033669;28;20937;-46
2022/09/20 03:19:16;;;;;;;8.83;4.30;;;8.00;1.00;;;;;;5033524;28;20402;-46
2022/09/20 03:21:53;;;;;;;11.83;5.73;;;8.00;1.00;;;;;;5033499;28;20414;-45
2022/09/20 03:24:39;;;;;;;8.37;4.47;;;8.00;1.00;;;;;;5033260;28;20425;-46
2022/09/20 03:27:30;;;;;;;11.93;4.10;;;8.00;1.00;;;;;;5033179;28;20413;-46
2022/09/20 03:30:23;;;;;;;11.30;5.80;;;8.00;1.00;;;;;;5032972;28;20542;-46
2022/09/20 03:33:19;;;;;;;10.73;4.10;;;7.90;1.00;;;;;;5033180;28;20402;-46
2022/09/20 03:36:21;;;;;;;8.53;4.40;;;8.00;1.00;;;;;;5033554;28;20412;-46
2022/09/20 03:39:05;;;;;;;11.80;4.77;;;7.90;1.00;;;;;;5032679;28;20515;-46
2022/09/20 03:41:37;;;;;;;11.57;4.30;;;7.90;1.00;;;;;;5032999;28;20440;-46
2022/09/20 03:44:09;;;;;;;9.33;4.50;;;7.80;1.00;;;;;;5033012;28;20426;-46
2022/09/20 03:46:46;;;;;;;10.63;4.20;;;7.80;1.00;;;;;;5032898;28;20448;-46
2022/09/20 03:49:40;;;;;;;9.50;3.90;;;7.70;1.00;;;;;;5032770;28;20452;-46
2022/09/20 03:52:19;;;;;;;7.87;4.43;;;7.70;1.00;;;;;;5031855;28;21077;-46
2022/09/20 03:55:14;;;;;;;6.77;4.03;;;7.70;1.00;;;;;;5032917;28;20718;-46
2022/09/20 03:58:13;;;;;;;9.37;4.17;;;7.60;1.00;;;;;;5032623;28;20398;-46
2022/09/20 04:00:54;;;;;;;8.70;4.13;;;7.60;1.00;;;;;;5032606;28;20410;-46
2022/09/20 04:03:32;;;;;;;9.30;3.83;;;7.50;1.00;;;;;;5032888;28;20417;-45
2022/09/20 04:06:21;;;;;;;11.00;4.50;;;7.50;1.00;;;;;;5032842;28;20419;-46
2022/09/20 04:09:09;;;;;;;10.30;4.33;;;7.40;1.00;;;;;;5032419;28;20429;-46
2022/09/20 04:12:21;;;;;;;7.13;4.30;;;7.40;1.00;;;;;;5032642;28;20414;-46
2022/09/20 04:14:56;;;;;;;13.07;4.90;;;7.30;1.00;;;;;;5030473;28;20587;-47
2022/09/20 04:17:46;;;;;;;12.80;4.80;;;7.30;1.00;;;;;;5031892;28;20408;-46
2022/09/20 04:20:37;;;;;;;6.63;3.97;;;7.20;1.00;;;;;;5032705;28;20475;-47
2022/09/20 04:23:28;;;;;;;10.07;3.97;;;7.20;1.00;;;;;;5032868;28;20417;-47
2022/09/20 04:25:54;;;;;;;11.00;3.80;;;7.20;1.00;;;;;;5028649;28;20904;-48
2022/09/20 04:28:50;;;;;;;8.97;3.93;;;7.30;1.00;;;;;;5032117;28;20430;-46
2022/09/20 04:31:34;;;;;;;8.80;4.10;;;7.30;1.00;;;;;;5032233;28;20415;-47
2022/09/20 04:34:03;;;;;;;18.83;5.57;;;7.30;1.00;;;;;;5032470;28;20421;-46
2022/09/20 04:37:18;;;;;;;8.30;4.37;;;7.30;1.00;;;;;;5032297;28;20406;-47
2022/09/20 04:39:56;;;;;;;11.07;4.53;;;7.20;1.00;;;;;;5009561;28;20943;-47
2022/09/20 04:42:39;;;;;;;8.43;4.17;;;7.20;1.00;;;;;;5009621;28;20410;-47
2022/09/20 04:45:38;;;;;;;8.10;4.27;;;7.20;1.00;;;;;;5026004;28;20453;-47
2022/09/20 04:48:29;;;;;;;10.27;4.20;;;7.10;1.00;;;;;;5032200;28;20426;-46
2022/09/20 04:51:15;;;;;;;6.80;4.30;;;7.10;1.00;;;;;;5031596;28;20995;-46
2022/09/20 04:54:06;;;;;;;8.43;3.50;;;7.10;1.00;;;;;;5031559;28;20414;-47
2022/09/20 04:56:51;;;;;;;6.20;3.43;;;7.10;1.00;;;;;;5031966;28;20398;-47
2022/09/20 04:59:54;;;;;;;6.03;3.93;;;7.10;1.00;;;;;;5031272;28;20409;-48
2022/09/20 05:02:58;;;;;;;6.47;3.40;;;7.00;1.00;;;;;;5031721;28;20455;-47
2022/09/20 05:05:56;;;;;;;9.37;3.37;;;7.00;1.00;;;;;;5024756;28;21095;-47
2022/09/20 05:08:35;;;;;;;8.27;3.50;;;7.00;1.00;;;;;;5031858;28;20399;-47
2022/09/20 05:11:30;;;;;;;5.60;3.67;;;7.00;1.00;;;;;;5031243;28;20485;-46
2022/09/20 05:14:24;;;;;;;9.40;4.37;;;7.00;1.00;;;;;;5031195;28;20468;-47
2022/09/20 05:16:58;;;;;;;8.03;3.60;;;7.00;1.00;;;;;;5031159;28;20753;-55
2022/09/20 05:20:00;;;;;;;7.20;3.60;;;7.00;1.00;;;;;;5031175;28;20412;-47
2022/09/20 05:22:53;;;;;;;8.30;4.20;;;7.00;1.00;;;;;;5030754;28;20452;-46
2022/09/20 05:25:37;;;;;;;7.60;3.47;;;7.00;1.00;;;;;;5031674;28;21203;-47
2022/09/20 05:28:25;;;;;;;7.07;3.63;;;7.10;1.00;;;;;;5031278;28;20418;-47
2022/09/20 05:30:57;;;;;;;10.30;4.30;;;7.10;1.00;;;;;;5027542;28;20507;-47
2022/09/20 05:33:38;;;;;;;7.30;3.90;;;7.20;1.00;;;;;;5031151;28;20398;-47
2022/09/20 05:36:04;;;;;;;8.20;4.13;;;7.20;1.00;;;;;;5030756;28;21043;-46
2022/09/20 05:38:41;;;;;;;7.70;3.20;;;7.30;1.00;;;;;;5031271;28;20505;-47
2022/09/20 05:41:23;;;;;;;17.33;3.97;;;7.40;1.00;;;;;;5030625;28;20193;-47
2022/09/20 05:43:53;;;;;;;7.80;4.10;;;7.50;1.00;;;;;;5030226;28;20455;-47
2022/09/20 05:46:38;;;;;;;10.80;4.10;;;7.50;1.00;;;;;;5030704;28;20401;-46
2022/09/20 05:49:23;;;;;;;5.77;3.80;;;7.60;1.00;;;;;;5030454;28;20437;-47
2022/09/20 05:52:23;;;;;;;5.97;3.33;;;7.70;1.00;;;;;;5030684;28;20778;-47
2022/09/20 05:55:10;;;;;;;9.73;3.73;;;7.70;1.00;;;;;;5030757;28;20521;-47
2022/09/20 05:57:59;;;;;;;7.80;3.60;;;7.80;1.00;;;;;;5030577;28;20417;-47
2022/09/20 06:00:31;;;;;;;7.80;2.97;;;7.80;1.00;;;;;;5030821;28;20418;-47
2022/09/20 06:03:04;;;;;;;7.27;3.93;;;7.80;1.00;;;;;;5030458;28;20896;-47
2022/09/20 06:05:59;;;;;;;12.23;4.87;;;7.80;1.00;;;;;;5030932;28;20751;-47
2022/09/20 06:08:50;;;;;;;11.83;4.53;;;7.90;1.00;;;;;;5030483;28;20416;-47
2022/09/20 06:11:39;;;;;;;11.23;3.60;;;7.90;1.00;;;;;;5030154;28;20469;-46
2022/09/20 06:14:20;;;;;;;5.50;3.53;;;7.90;1.00;;;;;;5026818;28;20856;-47
2022/09/20 06:17:05;;;;;;;15.50;3.70;;;8.00;1.00;;;;;;5030469;28;20420;-47
2022/09/20 06:19:35;;;;;;;9.00;3.73;;;8.10;1.00;;;;;;5030277;28;20441;-46
2022/09/20 06:22:20;;;;;;;6.63;3.10;;;8.20;1.00;;;;;;5030418;28;20398;-46
2022/09/20 06:25:06;;;;;;;17.13;3.33;;;8.30;1.00;;;;;;5030176;28;20830;-47
2022/09/20 06:27:38;;;;;;;11.77;3.60;;;8.40;1.00;;;;;;5030108;28;20483;-47
2022/09/20 06:30:11;;;;;;;6.73;3.00;;;8.60;1.00;;;;;;5030931;28;20469;-46
2022/09/20 06:32:52;;;;;;;12.37;4.03;;;8.70;1.00;;;;;;5030088;28;20911;-47
2022/09/20 06:35:19;;;;;;;8.83;3.20;;;8.80;1.00;;;;;;5030394;28;20390;-46
2022/09/20 06:43:30;;;;;;;11.40;3.33;;;9.10;1.00;;;;;;5033755;28;20523;-48
2022/09/20 06:45:56;;;;;;;8.30;2.80;;;9.20;1.00;;;;;;5033808;28;20426;-48
2022/09/20 06:48:23;;;;;;;21.90;4.40;;;9.30;1.00;;;;;;5034126;28;20217;-47
2022/09/20 06:50:51;;;;;;;10.10;2.90;;;9.40;1.00;;;;;;5033729;28;20465;-47
2022/09/20 06:53:22;;;;;;;8.40;2.77;;;9.40;1.00;;;;;;5033900;28;20406;-47
2022/09/20 06:55:48;;;;;;;9.63;3.90;;;9.60;1.00;;;;;;5033555;28;20493;-47
2022/09/20 06:58:14;;;;;;;11.30;3.40;;;9.70;1.00;;;;;;5033639;28;20421;-47
2022/09/20 07:00:40;;;;;;;8.23;3.03;;;9.90;1.00;;;;;;5033759;28;20914;-48
2022/09/20 07:03:06;;;;;;;12.37;3.80;;;10.30;1.00;;;;;;5033667;28;20179;-47
2022/09/20 07:05:31;;;;;;;15.23;3.77;;;10.70;1.00;;;;;;5032156;28;20183;-48
2022/09/20 07:07:58;;;;;;;11.83;3.70;;;11.20;1.00;;;;;;5033394;28;21021;-47
2022/09/20 07:10:28;;;;;;;10.27;2.60;;;11.60;1.00;;;;;;5033271;28;20214;-46
2022/09/20 07:12:59;;;;;;;8.23;2.50;;;12.00;99.90;;;;;;5033218;28;20529;-46
2022/09/20 07:15:25;;;;;;;10.60;2.50;;;12.50;28.00;;;;;;5033657;28;20409;-45
2022/09/20 07:17:51;;;;;;;17.80;2.90;;;12.90;1.00;;;;;;5033657;28;20795;-45
2022/09/20 07:20:18;;;;;;;8.30;2.50;;;13.20;1.00;;;;;;5033496;28;20413;-45
2022/09/20 07:22:44;;;;;;;11.70;2.20;;;13.60;1.00;;;;;;5033523;28;20418;-45
2022/09/20 07:25:10;;;;;;;8.13;2.37;;;14.20;1.00;;;;;;5033086;28;20525;-45
2022/09/20 07:27:35;;;;;;;6.20;1.90;;;14.70;99.90;;;;;;5033255;28;20437;-45
2022/09/20 07:30:01;;;;;;;9.37;2.30;;;15.10;1.00;;;;;;5033472;28;20215;-45
2022/09/20 07:32:27;;;;;;;4.40;1.90;;;15.50;65.00;;;;;;5037298;28;20202;-45
2022/09/20 07:34:52;;;;;;;12.13;2.07;;;15.60;99.90;;;;;;5036113;28;20301;-49
2022/09/20 07:37:18;;;;;;;8.27;1.93;;;15.90;99.90;;;;;;5039632;28;20214;-45
2022/09/20 07:39:46;;;;;;;9.40;1.80;;;16.30;99.90;;;;;;5053829;28;20194;-45
2022/09/20 07:42:12;;;;;;;4.83;1.67;;;16.50;1.00;;;;;;5039060;28;20210;-45
2022/09/20 07:44:41;;;;;;;10.87;2.60;;;16.80;1.00;;;;;;5033512;28;20430;-45
2022/09/20 07:47:09;;;;;;;12.00;2.00;;;17.00;1.00;;;;;;5046580;28;20448;-45
2022/09/20 07:49:35;;;;;;;15.50;2.10;;;17.30;1.00;;;;;;5052850;28;20455;-45
2022/09/20 07:52:01;;;;;;;9.07;2.10;;;17.60;1.00;;;;;;5051640;28;20471;-45
2022/09/20 07:54:27;;;;;;;9.03;1.87;;;17.90;1.00;;;;;;5037176;28;20571;-45
2022/09/20 07:56:53;;;;;;;11.53;1.83;;;18.30;1.00;;;;;;5033830;28;20441;-45
2022/09/20 07:59:18;;;;;;;11.83;1.73;;;18.40;1.00;;;;;;5038622;28;20244;-45
2022/09/20 08:01:44;;;;;;;28.40;16.00;;;18.40;1.00;;;;;;5040365;28;20194;-45
2022/09/20 08:04:10;;;;;;;14.33;4.10;;;18.50;1.00;;;;;;5052953;28;20183;-45
2022/09/20 08:06:38;;;;;;;6.30;1.80;;;18.60;1.00;;;;;;5034525;28;20253;-48
2022/09/20 08:09:05;;;;;;;6.47;1.53;;;18.60;1.00;;;;;;5032034;28;20825;-48
2022/09/20 08:11:30;;;;;;;6.60;1.80;;;18.90;1.00;;;;;;5033754;28;20465;-49
2022/09/20 08:13:58;;;;;;;8.00;1.67;;;19.00;1.00;;;;;;5036270;28;20441;-49
2022/09/20 08:16:25;;;;;;;8.30;1.60;;;19.20;1.00;;;;;;5033713;28;20195;-45
2022/09/20 08:18:57;;;;;;;7.90;1.73;;;19.20;1.00;;;;;;5045844;28;20476;-45
2022/09/20 08:21:24;;;;;;;6.07;1.87;;;19.20;1.00;;;;;;5034426;28;20499;-45
2022/09/20 08:23:50;;;;;;;14.17;2.20;;;19.40;1.00;;;;;;5046534;28;20928;-46
2022/09/20 08:26:19;;;;;;;8.57;2.23;;;19.50;1.00;;;;;;5035131;28;20607;-46
2022/09/20 08:28:45;;;;;;;9.00;1.80;;;19.60;1.00;;;;;;5037410;28;20471;-46
2022/09/20 08:31:13;;;;;;;7.10;1.90;;;19.80;1.00;;;;;;5048380;28;20585;-45
2022/09/20 08:33:40;;;;;;;9.80;1.70;;;20.00;1.00;;;;;;5051725;28;20421;-46
2022/09/20 08:36:08;;;;;;;9.80;1.87;;;20.30;1.00;;;;;;5052358;28;20910;-46
2022/09/20 08:38:34;;;;;;;7.07;1.73;;;20.50;1.00;;;;;;5051744;28;20405;-46
2022/09/20 08:41:11;;;;;;;5.37;2.23;;;20.70;1.00;;;;;;5051689;28;20427;-47
2022/09/20 08:43:41;;;;;;;13.17;2.00;;;20.50;1.00;;;;;;5042987;28;20425;-45
2022/09/20 08:46:12;;;;;;;7.13;1.70;;;20.50;1.00;;;;;;5031940;28;20409;-45
2022/09/20 08:48:38;;;;;;;8.97;2.20;;;20.50;1.00;;;;;;5031871;28;20428;-46
2022/09/20 08:51:07;;;;;;;7.93;2.23;;;20.50;1.00;;;;;;5048306;28;20464;-45
2022/09/20 08:53:33;;;;;;;8.63;1.77;;;20.00;1.00;;;;;;5051454;28;20817;-45
2022/09/20 08:56:00;;;;;;;5.47;1.30;;;19.80;1.00;;;;;;5051164;28;20435;-45
2022/09/20 08:58:26;;;;;;;13.43;1.80;;;19.70;1.00;;;;;;5051380;28;20968;-45
2022/09/20 09:00:53;;;;;;;8.87;1.90;;;19.90;1.00;;;;;;5040523;28;20429;-45
2022/09/20 09:03:18;;;;;;;4.70;1.50;;;20.00;1.00;;;;;;5031278;28;20426;-45
2022/09/20 09:05:47;;;;;;;10.90;2.23;;;19.90;1.00;;;;;;5030684;28;20460;-46
2022/09/20 09:08:17;;;;;;;8.37;1.90;;;19.20;1.00;;;;;;5045575;28;20557;-46
2022/09/20 09:10:58;;;;;;;10.33;2.10;;;18.40;1.00;;;;;;5048235;28;20476;-45
2022/09/20 09:13:50;;;;;;;14.53;1.83;;;17.70;1.00;;;;;;5051104;28;20438;-45
2022/09/20 09:16:16;;;;;;;7.27;1.40;;;17.10;1.00;;;;;;5051213;28;20451;-45
2022/09/20 09:18:44;;;;;;;7.60;1.47;;;16.70;1.00;;;;;;5051225;28;20766;-45
2022/09/20 09:21:24;;;;;;;8.00;1.80;;;16.60;1.00;;;;;;5050851;28;20428;-45
2022/09/20 09:24:02;;;;;;;10.23;2.10;;;16.40;1.00;;;;;;5050977;28;20427;-45
2022/09/20 09:26:35;;;;;;;9.33;1.73;;;16.10;1.00;;;;;;5050641;28;20559;-45
2022/09/20 09:29:09;;;;;;;7.77;1.70;;;15.90;1.00;;;;;;5050660;28;20439;-45
2022/09/20 09:31:36;;;;;;;11.67;1.80;;;15.60;1.00;;;;;;5050728;28;20467;-45
2022/09/20 09:34:01;;;;;;;17.47;2.40;;;15.40;1.00;;;;;;5050699;28;20466;-45
2022/09/20 09:36:27;;;;;;;10.93;2.23;;;15.30;1.00;;;;;;5050510;28;20397;-45
2022/09/20 09:39:15;;;;;;;10.00;1.73;;;15.40;1.00;;;;;;5051071;28;20169;-45
2022/09/20 09:41:42;;;;;;;12.43;2.10;;;15.60;1.00;;;;;;5050515;28;20271;-45
2022/09/20 09:44:23;;;;;;;7.53;2.13;;;15.80;1.00;;;;;;5050543;28;20873;-45
2022/09/20 09:46:50;;;;;;;11.10;1.30;;;16.00;1.00;;;;;;5050429;28;20443;-45
2022/09/20 09:49:17;;;;;;;8.10;1.60;;;15.90;1.00;;;;;;5050552;28;20404;-45
2022/09/20 09:51:59;;;;;;;10.20;2.07;;;15.60;1.00;;;;;;5043473;28;20392;-45
2022/09/20 09:54:26;;;;;;;7.83;1.47;;;15.60;1.00;;;;;;5048149;28;20514;-45
2022/09/20 09:57:14;;;;;;;12.13;1.97;;;15.70;1.00;;;;;;5050349;28;21004;-45
2022/09/20 09:59:56;;;;;;;13.17;1.70;;;15.90;1.00;;;;;;5050864;28;20401;-45
2022/09/20 10:02:59;;;;;;;6.17;1.37;;;15.90;1.00;;;;;;5050569;28;20780;-48
2022/09/20 10:05:28;;;;;;;14.27;1.30;;;15.80;1.00;;;;;;5050535;28;20825;-45
2022/09/20 10:07:53;;;;;;;18.03;1.97;;;15.80;1.00;;;;;;5050266;28;21058;-45
2022/09/20 10:10:42;;;;;;;8.00;1.20;;;15.80;1.00;;;;;;5050362;28;20568;-45
2022/09/20 10:13:25;;;;;;;8.20;1.70;;;15.70;1.00;;;;;;5050112;28;20178;-47
2022/09/20 10:16:03;;;;;;;10.30;1.60;;;16.00;1.00;;;;;;5050314;28;20730;-47
2022/09/20 10:18:56;;;;;;;4.90;1.30;;;16.40;1.00;;;;;;5049999;28;20423;-47
2022/09/20 10:21:49;;;;;;;6.27;1.43;;;16.80;1.00;;;;;;5047851;28;20432;-47
2022/09/20 10:24:33;;;;;;;11.13;2.17;;;17.10;1.00;;;;;;5050234;28;20777;-47
2022/09/20 10:27:07;;;;;;;6.23;1.70;;;17.50;1.00;;;;;;5050107;28;20412;-47
2022/09/20 10:29:45;;;;;;;8.17;1.50;;;17.90;1.00;;;;;;5049945;28;20781;-47
2022/09/20 10:32:13;;;;;;;8.70;1.60;;;18.30;1.00;;;;;;5049668;28;20964;-47
2022/09/20 10:34:52;;;;;;;8.60;1.50;;;18.40;1.00;;;;;;5049994;28;20810;-45
2022/09/20 10:37:39;;;;;;;5.40;1.20;;;18.70;1.00;;;;;;5042122;28;20515;-45
2022/09/20 10:40:14;;;;;;;7.80;2.17;;;19.50;1.00;;;;;;5030248;28;20398;-45
2022/09/20 10:45:49;;;;;;;12.50;1.60;;;20.90;1.00;;;;;;5030308;28;20444;-45
2022/09/20 10:48:25;;;;;;;6.63;1.67;;;21.60;1.00;;;;;;5029872;28;20395;-46
2022/09/20 10:50:56;;;;;;;3.90;1.20;;;22.40;1.00;;;;;;5030455;28;20476;-46
2022/09/20 10:53:28;;;;;;;7.80;1.70;;;23.30;99.90;;;;;;5029717;28;20500;-46
2022/09/20 10:55:53;;;;;;;2.60;1.10;;;23.70;99.90;;;;;;5029945;28;20421;-45
2022/09/20 10:58:34;;;;;;;4.70;1.30;;;23.70;99.90;;;;;;5029712;28;20418;-45
2022/09/20 11:01:35;;;;;;;3.10;1.20;;;22.90;99.90;;;;;;5030312;28;20195;-46
2022/09/20 11:04:22;;;;;;;5.40;1.30;;;21.40;99.90;;;;;;5030507;28;20405;-45
2022/09/20 11:07:04;;;;;;;4.40;1.30;;;21.50;99.90;;;;;;5029961;28;20495;-45
2022/09/20 11:09:35;;;;;;;5.80;1.77;;;22.20;99.90;;;;;;5029934;28;20732;-45
2022/09/20 11:12:17;;;;;;;6.30;1.43;;;22.80;99.90;;;;;;5030536;28;20931;-46
2022/09/20 11:14:58;;;;;;;3.90;1.53;;;23.50;99.90;;;;;;5030427;28;20402;-46
2022/09/20 11:17:37;;;;;;;4.73;1.43;;;23.70;99.90;;;;;;5029955;28;20508;-45
2022/09/20 11:20:15;;;;;;;4.63;1.20;;;23.60;99.90;;;;;;5029800;28;20854;-45
2022/09/20 11:22:48;;;;;;;11.00;1.43;;;23.70;99.90;;;;;;5030450;28;20448;-45
2022/09/20 11:25:22;;;;;;;5.03;1.17;;;22.40;99.90;;;;;;5030040;28;20476;-45
2022/09/20 11:27:56;;;;;;;4.43;1.40;;;21.00;99.90;;;;;;5031464;28;20459;-46
2022/09/20 11:30:23;;;;;;;6.60;1.23;;;19.50;99.90;;;;;;5032378;28;20559;-45
2022/09/20 11:33:17;;;;;;;5.70;1.40;;;18.80;99.90;;;;;;5033995;28;20500;-46
2022/09/20 11:35:50;;;;;;;4.80;1.50;;;19.90;99.90;;;;;;5014827;28;20950;-45
2022/09/20 11:38:27;;;;;;;3.90;1.57;;;21.10;99.90;;;;;;5032930;28;20417;-46
2022/09/20 11:41:28;;;;;;;9.50;1.70;;;22.30;99.90;;;;;;5033560;28;20919;-48
2022/09/20 11:44:05;;;;;;;4.23;1.50;;;22.90;99.90;;;;;;5032109;28;21210;-48
2022/09/20 11:46:40;;;;;;;8.07;1.90;;;23.40;99.90;;;;;;5040615;28;20441;-48
2022/09/20 11:49:27;;;;;;;5.03;1.30;;;24.10;99.90;;;;;;5053003;28;20397;-48
2022/09/20 11:51:52;;;;;;;4.80;1.80;;;24.10;99.90;;;;;;5052816;28;20409;-48
2022/09/20 11:54:47;;;;;;;6.57;1.20;;;24.40;99.90;;;;;;5052819;28;20462;-48
2022/09/20 11:57:17;;;;;;;2.07;0.87;;;24.90;99.90;;;;;;5053059;28;20698;-48
2022/09/20 11:59:52;;;;;;;4.60;1.57;;;25.20;99.90;;;;;;5053061;28;20394;-48
2022/09/20 12:02:44;;;;;;;6.57;1.60;;;25.20;99.90;;;;;;5051542;28;20427;-48
2022/09/20 12:05:45;;;;;;;10.77;1.60;;;25.10;99.90;;;;;;5052433;28;20401;-46
2022/09/20 12:08:29;;;;;;;5.20;1.43;;;24.00;99.90;;;;;;5030158;28;20456;-46
2022/09/20 12:11:04;;;;;;;4.37;1.00;;;22.40;99.90;;;;;;5050833;28;20576;-46
2022/09/20 12:13:35;;;;;;;9.83;1.93;;;20.60;99.90;;;;;;5051238;28;20419;-45
2022/09/20 12:16:14;;;;;;;2.90;1.10;;;19.30;99.90;;;;;;5052238;28;20423;-46
2022/09/20 12:18:52;;;;;;;4.83;1.37;;;18.70;99.90;;;;;;5052631;28;20885;-45
2022/09/20 12:21:20;;;;;;;6.63;1.40;;;19.80;99.90;;;;;;5052358;28;20408;-45
2022/09/20 12:23:52;;;;;;;4.90;1.37;;;21.10;99.90;;;;;;5052339;28;20413;-47
2022/09/20 12:26:17;;;;;;;10.50;1.40;;;22.40;99.90;;;;;;5051689;28;20464;-46
2022/09/20 12:28:49;;;;;;;5.10;1.40;;;23.40;99.90;;;;;;5052467;28;20955;-46
2022/09/20 12:31:17;;;;;;;6.77;1.20;;;24.00;99.90;;;;;;5052486;28;20202;-46
2022/09/20 12:34:03;;;;;;;9.80;1.77;;;24.40;99.90;;;;;;5052253;28;20413;-46
2022/09/20 12:36:42;;;;;;;6.20;1.50;;;24.60;99.90;;;;;;5052042;28;20412;-46
2022/09/20 12:39:09;;;;;;;3.63;1.37;;;24.80;99.90;;;;;;5051106;28;20407;-46
2022/09/20 12:41:51;;;;;;;5.73;1.90;;;23.70;99.90;;;;;;5051994;28;20416;-45
2022/09/20 12:44:48;;;;;;;3.30;1.30;;;21.80;99.90;;;;;;5051511;28;20447;-45
2022/09/20 12:47:23;;;;;;;12.13;1.43;;;20.50;99.90;;;;;;5051709;28;20412;-45
2022/09/20 12:52:56;;;;;;;3.03;1.20;;;18.80;99.90;;;;;;5051963;28;20454;-47
2022/09/20 12:55:42;;;;;;;7.20;1.50;;;19.90;99.90;;;;;;5051854;28;20431;-48
2022/09/20 12:58:13;;;;;;;3.53;1.00;;;21.30;99.90;;;;;;5051530;28;20464;-47
2022/09/20 13:00:47;;;;;;;4.10;1.30;;;22.60;99.90;;;;;;5051796;28;20424;-48
2022/09/20 13:03:30;;;;;;;4.67;1.30;;;23.60;99.90;;;;;;5052195;28;20404;-49
2022/09/20 13:06:09;;;;;;;6.87;1.20;;;24.20;99.90;;;;;;5051422;28;20485;-48
2022/09/20 13:09:00;;;;;;;3.13;1.17;;;24.70;99.90;;;;;;5051301;28;20471;-48
2022/09/20 13:11:26;;;;;;;3.07;1.13;;;25.00;99.90;;;;;;5049926;28;20460;-48
2022/09/20 13:14:08;;;;;;;3.63;1.10;;;25.00;99.90;;;;;;5051363;28;20412;-48
2022/09/20 13:16:46;;;;;;;4.53;1.10;;;25.10;99.90;;;;;;5051062;28;20413;-48
2022/09/20 13:19:19;;;;;;;4.23;1.27;;;24.90;99.90;;;;;;5050967;28;20926;-48
2022/09/20 13:22:01;;;;;;;1.80;0.90;;;24.90;99.90;;;;;;5050977;28;20444;-48
2022/09/20 13:24:48;;;;;;;5.10;1.30;;;25.10;99.90;;;;;;5050511;28;20432;-47
2022/09/20 13:27:22;;;;;;;4.07;1.37;;;25.30;99.90;;;;;;5050447;28;20436;-46
2022/09/20 13:29:48;;;;;;;4.07;1.27;;;25.50;99.90;;;;;;5050881;28;20444;-46
2022/09/20 13:32:21;;;;;;;8.40;1.60;;;25.50;99.90;;;;;;5050995;28;20435;-46
2022/09/20 13:35:14;;;;;;;5.37;1.30;;;25.70;99.90;;;;;;5029450;28;20191;-46
2022/09/20 13:37:54;;;;;;;7.03;1.13;;;25.50;99.90;;;;;;5030845;28;20402;-46
2022/09/20 13:40:24;;;;;;;3.73;1.20;;;24.10;99.90;;;;;;5030861;28;20406;-46
2022/09/20 13:42:51;;;;;;;5.20;1.33;;;22.60;99.90;;;;;;5030763;28;20489;-46
2022/09/20 13:45:19;;;;;;;5.93;1.37;;;21.20;99.90;;;;;;5030769;28;20418;-48
2022/09/20 13:47:50;;;;;;;5.63;1.50;;;20.70;99.90;;;;;;5030830;28;20927;-48
2022/09/20 13:50:25;;;;;;;5.53;1.50;;;21.10;99.90;;;;;;5029293;28;20465;-48
2022/09/20 13:52:54;;;;;;;9.93;1.60;;;21.80;99.90;;;;;;5030912;28;20401;-48
2022/09/20 13:55:34;;;;;;;4.30;1.57;;;22.50;99.90;;;;;;5030641;28;20471;-48
2022/09/20 13:58:03;;;;;;;4.30;1.20;;;23.00;99.90;;;;;;5046753;28;20930;-46
2022/09/20 14:00:30;;;;;;;4.23;1.40;;;23.10;99.90;;;;;;5049691;28;20498;-46
2022/09/20 14:02:57;;;;;;;3.67;1.20;;;23.20;99.90;;;;;;5050418;28;20412;-46